Whitman, NE (69366)

9:41 AM MST on January 28, 2015 (GMT -0700)
Thedford | Change Station
CLOSE
Current Station
Airport
Location: Thedford,
Elevation: 2927 ft
Nearby Weather Stations

Elev 2927 ft 41.96 °N, 100.57 °W | Updated 26 minutes ago

Partly Cloudy
Partly Cloudy
56 °F
Feels Like 56 °F
N
21
Wind Variable Wind from WNW
Gusts 24 mph

Today
High -- | Low -- °F
--% Chance of Precip.
Yesterday
High -- | Low -- °F
Precip. -- in
7:02 AM 4:55 PM
Waxing Gibbous, 66% visible
Pressure 29.82 in
Visibility 10.0 miles
Clouds Clear
Dew Point 33 °F
Humidity 43%
Rainfall 0.00 in
Snow Depth Not available.
UV 1 out of 12
Pollen 2.80 out of 12
Air Quality Not available.
Flu Activity Not available.
METAR KTIF 281615Z AUTO 29018G21KT 10SM CLR 13/01 A2982 RMK AO2 T01320008

More Conditions Fewer Conditions

Pressure 29.82 in
Visibility 10.0 miles
Clouds Clear
Dew Point 33 °F
Humidity 43%
Rainfall 0.00 in
Snow Depth Not available.
UV 1 out of 12
Pollen 2.80 out of 12
Air Quality Not available.
Flu Activity Not available.
METAR KTIF 281615Z AUTO 29018G21KT 10SM CLR 13/01 A2982 RMK AO2 T01320008

More Conditions Fewer Conditions

10-Day Weather Forecast

Almanac

Astronomy

Jan. 28, 2015 Rise Set
Actual Time
Civil Twilight
Nautical Twilight
Astronomical Twilight
Moon
Length of Visible Light
Length of Day
Tomorrow will be .
, % of the Moon is Illuminated

Today's Extremes

State Highs State Lows

Community

WunderPhotos

Upload Photos

1,791,197 photos uploaded!

WunderBlogs® & News

Nearby

Air Quality

  Air Quality AQ Index Pollutant
Not available.

Snow Depth

Station Depth Elevation

Earthquake Activity

City Distance Mag. Time & Date
Minimum magnitude displayed is 2.5.

Coastal Water Temperatures

Place Temperature

Nearby Weather Stations